Time;durP1;ratioP1;P1;durP2;ratioP2;P2;SDS_P1;SDS_P2;PMS_P1;PMS_P2;Temp;Humidity;BMP_temperature;BMP_pressure;BME280_temperature;BME280_humidity;BME280_pressure;Samples;Min_cycle;Max_cycle;Signal;HPM_P1;HPM_P2
2021/06/11 00:00:23;;;;;;;0.33;0.33;;;19.30;99.90;;;;;;5050539;28;20209;-82
2021/06/11 00:02:48;;;;;;;0.90;0.50;;;19.30;99.90;;;;;;5049738;28;20185;-82
2021/06/11 00:05:14;;;;;;;0.40;0.40;;;19.30;99.90;;;;;;5051965;28;20669;-82
2021/06/11 00:07:40;;;;;;;0.40;0.40;;;19.40;99.90;;;;;;5050443;28;20670;-82
2021/06/11 00:10:09;;;;;;;0.43;0.43;;;19.40;99.90;;;;;;5051641;28;20189;-82
2021/06/11 00:12:35;;;;;;;1.57;0.90;;;19.40;99.90;;;;;;5050320;28;20787;-82
2021/06/11 00:15:00;;;;;;;0.47;0.47;;;19.50;99.90;;;;;;5068123;28;20208;-82
2021/06/11 00:17:26;;;;;;;1.00;0.50;;;19.60;99.90;;;;;;5062772;28;20583;-82
2021/06/11 00:19:52;;;;;;;0.47;0.47;;;19.50;99.90;;;;;;5049360;28;20278;-82
2021/06/11 00:22:18;;;;;;;0.73;0.73;;;19.50;99.90;;;;;;5056055;28;20182;-82
2021/06/11 00:24:43;;;;;;;0.60;0.60;;;19.40;99.90;;;;;;5071518;28;20217;-82
2021/06/11 00:27:09;;;;;;;0.83;0.67;;;19.40;99.90;;;;;;5054235;28;20205;-82
2021/06/11 00:29:35;;;;;;;0.50;0.50;;;19.30;99.90;;;;;;5054160;28;20193;-83
2021/06/11 00:32:00;;;;;;;0.70;0.70;;;19.30;99.90;;;;;;5054450;28;20187;-81
2021/06/11 00:34:26;;;;;;;0.57;0.57;;;19.20;99.90;;;;;;5070850;28;20186;-82
2021/06/11 00:36:52;;;;;;;0.60;0.60;;;19.20;99.90;;;;;;5052871;28;20188;-82
2021/06/11 00:39:17;;;;;;;0.40;0.40;;;19.10;99.90;;;;;;5054326;28;20217;-82
2021/06/11 00:41:43;;;;;;;0.37;0.37;;;19.10;99.90;;;;;;5053985;28;20197;-82
2021/06/11 00:44:08;;;;;;;0.47;0.47;;;19.10;99.90;;;;;;5054315;28;20579;-82
2021/06/11 00:46:34;;;;;;;0.43;0.43;;;19.10;99.90;;;;;;5053751;28;20185;-82
2021/06/11 00:49:00;;;;;;;0.53;0.53;;;19.00;99.90;;;;;;5053711;28;20190;-83
2021/06/11 00:51:26;;;;;;;1.00;1.00;;;19.10;99.90;;;;;;5053939;28;20223;-82
2021/06/11 00:53:52;;;;;;;0.90;0.90;;;19.20;99.90;;;;;;5053056;28;20680;-82
2021/06/11 00:56:18;;;;;;;1.13;1.03;;;19.20;99.90;;;;;;5054226;28;20293;-82
2021/06/11 00:58:44;;;;;;;1.13;1.03;;;19.10;99.90;;;;;;5053386;28;20693;-82
2021/06/11 01:01:10;;;;;;;0.60;0.50;;;19.00;99.90;;;;;;5054262;28;20184;-82
2021/06/11 01:03:35;;;;;;;3.20;1.10;;;18.80;99.90;;;;;;5069303;28;20260;-82
2021/06/11 01:06:01;;;;;;;0.40;0.40;;;18.80;99.90;;;;;;5053956;28;20182;-82
2021/06/11 01:08:26;;;;;;;1.30;0.63;;;18.50;99.90;;;;;;5052962;28;20216;-82
2021/06/11 01:10:53;;;;;;;0.50;0.50;;;18.50;99.90;;;;;;5053884;28;20200;-82
2021/06/11 01:13:19;;;;;;;0.80;0.80;;;18.50;99.90;;;;;;5055028;28;20228;-82
2021/06/11 01:15:48;;;;;;;0.80;0.80;;;18.50;99.90;;;;;;5053962;28;20671;-82
2021/06/11 01:18:14;;;;;;;0.67;0.67;;;18.50;99.90;;;;;;5053778;28;20613;-81
2021/06/11 01:20:41;;;;;;;1.60;0.70;;;18.60;99.90;;;;;;5041674;28;20321;-82
2021/06/11 01:23:15;;;;;;;1.17;1.17;;;18.70;99.90;;;;;;5052915;28;20909;-82
2021/06/11 01:26:18;;;;;;;1.20;0.40;;;18.80;99.90;;;;;;5052277;28;20719;-82
2021/06/11 01:28:44;;;;;;;0.33;0.30;;;18.80;99.90;;;;;;5048141;28;20255;-81
2021/06/11 01:31:10;;;;;;;0.73;0.73;;;18.70;99.90;;;;;;5044103;28;20220;-81
2021/06/11 01:33:37;;;;;;;0.77;0.77;;;18.70;99.90;;;;;;5052036;28;20646;-82
2021/06/11 01:36:09;;;;;;;0.90;0.90;;;18.70;99.90;;;;;;5052641;28;20220;-82
2021/06/11 01:38:39;;;;;;;1.03;1.03;;;18.60;99.90;;;;;;5052082;28;20213;-82
2021/06/11 01:41:07;;;;;;;1.27;1.13;;;18.50;99.90;;;;;;5052179;28;20190;-82
2021/06/11 01:43:34;;;;;;;1.10;1.00;;;18.40;99.90;;;;;;5051814;28;20693;-82
2021/06/11 01:46:00;;;;;;;0.70;0.67;;;18.40;99.90;;;;;;5052278;28;20637;-81
2021/06/11 01:48:28;;;;;;;0.80;0.80;;;18.40;99.90;;;;;;5052715;28;20220;-82
2021/06/11 01:50:56;;;;;;;2.73;1.10;;;18.30;99.90;;;;;;5049175;28;20180;-82
2021/06/11 01:53:23;;;;;;;0.93;0.80;;;18.30;99.90;;;;;;5051782;28;20188;-82
2021/06/11 01:55:49;;;;;;;1.23;0.80;;;18.20;99.90;;;;;;5042725;28;20185;-82
2021/06/11 01:58:17;;;;;;;0.87;0.87;;;18.20;99.90;;;;;;5052537;28;20209;-81
2021/06/11 02:00:44;;;;;;;0.77;0.77;;;18.20;99.90;;;;;;5050396;28;20209;-82
2021/06/11 02:03:11;;;;;;;1.10;0.77;;;17.80;99.90;;;;;;5052304;28;20644;-82
2021/06/11 02:05:37;;;;;;;0.87;0.67;;;17.60;99.90;;;;;;5051619;28;20212;-82
2021/06/11 02:08:04;;;;;;;0.57;0.57;;;17.50;99.90;;;;;;5051767;28;20233;-82
2021/06/11 02:10:30;;;;;;;0.63;0.60;;;17.40;99.90;;;;;;5052057;28;20215;-82
2021/06/11 02:12:56;;;;;;;0.90;0.90;;;17.40;99.90;;;;;;5068698;28;20181;-82
2021/06/11 02:15:23;;;;;;;1.23;0.90;;;17.50;99.90;;;;;;5051975;28;20646;-82
2021/06/11 02:17:50;;;;;;;3.23;0.67;;;17.60;99.90;;;;;;5052877;28;20807;-82
2021/06/11 02:20:20;;;;;;;0.40;0.40;;;17.60;99.90;;;;;;5052578;28;20543;-82
2021/06/11 02:22:46;;;;;;;0.37;0.37;;;17.60;99.90;;;;;;5052174;28;20185;-82
2021/06/11 02:25:16;;;;;;;0.97;0.63;;;17.80;99.90;;;;;;5053176;28;20232;-82
2021/06/11 02:27:43;;;;;;;0.73;0.60;;;17.80;99.90;;;;;;5048239;28;20255;-82
2021/06/11 02:30:10;;;;;;;0.83;0.70;;;17.80;99.90;;;;;;5051223;28;20658;-82
2021/06/11 02:32:37;;;;;;;0.60;0.60;;;17.80;99.90;;;;;;5039130;28;20252;-82
2021/06/11 02:35:05;;;;;;;0.30;0.30;;;17.80;99.90;;;;;;5067315;28;20253;-81
2021/06/11 02:37:30;;;;;;;0.50;0.50;;;17.80;99.90;;;;;;5049645;28;20355;-82
2021/06/11 02:39:56;;;;;;;0.70;0.70;;;17.90;99.90;;;;;;5051879;28;20211;-82
2021/06/11 02:42:23;;;;;;;1.80;1.03;;;17.90;99.90;;;;;;5053168;28;20188;-82
2021/06/11 02:44:51;;;;;;;0.87;0.60;;;17.90;99.90;;;;;;5052673;28;20219;-82
2021/06/11 02:47:21;;;;;;;0.90;0.80;;;17.90;99.90;;;;;;5047244;28;20673;-82
2021/06/11 02:49:54;;;;;;;2.47;1.63;;;17.90;99.90;;;;;;5051841;28;20696;-82
2021/06/11 02:52:22;;;;;;;0.67;0.67;;;17.90;99.90;;;;;;5051163;28;20193;-81
2021/06/11 02:54:51;;;;;;;1.37;0.80;;;17.90;99.90;;;;;;5061259;28;20198;-82
2021/06/11 02:57:22;;;;;;;0.87;0.83;;;18.00;99.90;;;;;;5050567;28;20216;-82
2021/06/11 02:59:53;;;;;;;0.60;0.60;;;17.80;99.90;;;;;;5050038;28;20185;-81
2021/06/11 03:02:32;;;;;;;0.40;0.40;;;17.90;99.90;;;;;;5052574;28;20177;-82
2021/06/11 03:05:00;;;;;;;1.20;1.10;;;17.90;99.90;;;;;;5051635;28;20218;-81
2021/06/11 03:07:29;;;;;;;0.57;0.50;;;17.90;99.90;;;;;;5051842;28;20563;-82
2021/06/11 03:10:02;;;;;;;1.10;0.60;;;17.90;99.90;;;;;;5050587;28;20590;-81
2021/06/11 03:12:30;;;;;;;1.70;0.87;;;17.90;99.90;;;;;;5051556;28;20537;-82
2021/06/11 03:14:55;;;;;;;0.67;0.67;;;18.00;99.90;;;;;;5067716;28;20192;-82
2021/06/11 03:17:29;;;;;;;0.60;0.60;;;18.00;99.90;;;;;;5049959;28;20216;-81
2021/06/11 03:19:59;;;;;;;1.57;0.87;;;17.90;99.90;;;;;;5045208;28;20296;-82
2021/06/11 03:22:33;;;;;;;0.60;0.60;;;17.80;99.90;;;;;;5046024;28;20200;-80
2021/06/11 03:25:05;;;;;;;0.63;0.60;;;17.80;99.90;;;;;;5057665;28;20208;-82
2021/06/11 03:28:11;;;;;;;0.67;0.67;;;17.80;99.90;;;;;;5051856;28;20209;-84
2021/06/11 03:30:42;;;;;;;0.60;0.60;;;17.70;99.90;;;;;;5048817;28;20208;-81
2021/06/11 03:33:11;;;;;;;0.90;0.63;;;17.70;99.90;;;;;;5038387;28;20192;-82
2021/06/11 03:36:00;;;;;;;0.50;0.50;;;17.40;99.90;;;;;;5059401;28;20197;-82
2021/06/11 03:38:29;;;;;;;0.57;0.50;;;17.60;99.90;;;;;;5034004;28;20697;-82
2021/06/11 03:40:56;;;;;;;0.90;0.80;;;18.00;99.90;;;;;;5050419;28;20182;-83
2021/06/11 03:43:22;;;;;;;1.57;0.73;;;18.40;99.90;;;;;;5059312;28;20189;-82
2021/06/11 03:45:49;;;;;;;1.33;1.27;;;18.70;99.90;;;;;;5065249;28;20742;-83
2021/06/11 03:48:16;;;;;;;0.70;0.70;;;19.20;99.90;;;;;;5048547;28;20202;-82
2021/06/11 03:50:46;;;;;;;1.53;0.93;;;19.60;99.90;;;;;;5049626;28;20553;-83
2021/06/11 03:53:14;;;;;;;0.67;0.67;;;20.00;99.90;;;;;;5042462;28;20245;-82
2021/06/11 03:55:43;;;;;;;1.00;0.90;;;20.30;99.90;;;;;;5053569;28;20197;-82
2021/06/11 03:58:12;;;;;;;0.63;0.40;;;20.80;99.90;;;;;;5057622;28;20205;-83
2021/06/11 04:00:42;;;;;;;0.43;0.43;;;21.20;99.90;;;;;;5068103;28;20555;-82
2021/06/11 04:03:07;;;;;;;1.63;1.17;;;21.50;99.90;;;;;;5074227;28;20196;-82
2021/06/11 04:05:34;;;;;;;0.30;0.30;;;21.80;99.90;;;;;;5062172;28;20213;-83
2021/06/11 04:08:00;;;;;;;0.70;0.70;;;22.10;99.90;;;;;;5056190;28;20204;-83
2021/06/11 04:10:49;;;;;;;0.83;0.83;;;22.60;99.90;;;;;;5056030;28;20200;-82
2021/06/11 04:13:20;;;;;;;0.50;0.50;;;23.00;99.90;;;;;;5057371;28;20212;-82
2021/06/11 04:15:51;;;;;;;0.70;0.70;;;23.40;99.90;;;;;;5054141;28;20727;-83
2021/06/11 04:18:23;;;;;;;0.60;0.60;;;23.80;99.90;;;;;;5057719;28;20216;-82
2021/06/11 04:20:52;;;;;;;0.60;0.60;;;24.10;99.90;;;;;;5053332;28;20204;-82
2021/06/11 04:23:22;;;;;;;0.53;0.53;;;24.20;99.90;;;;;;5056544;28;20181;-81
2021/06/11 04:25:48;;;;;;;0.93;0.73;;;24.00;99.90;;;;;;5057590;28;20221;-83
2021/06/11 04:28:15;;;;;;;0.80;0.80;;;23.50;99.90;;;;;;5052613;28;20552;-83
2021/06/11 04:30:40;;;;;;;0.63;0.63;;;23.00;99.90;;;;;;5048256;28;20201;-83
2021/06/11 04:33:22;;;;;;;1.20;0.80;;;22.50;99.90;;;;;;5064269;28;20252;-83
2021/06/11 04:35:49;;;;;;;0.80;0.80;;;22.20;99.90;;;;;;5063246;28;20201;-83
2021/06/11 04:38:15;;;;;;;0.93;0.87;;;22.10;99.90;;;;;;5070729;28;20209;-83
2021/06/11 04:40:41;;;;;;;0.93;0.93;;;22.00;99.90;;;;;;5072893;28;20190;-82
2021/06/11 04:43:07;;;;;;;0.67;0.50;;;21.90;99.90;;;;;;5058529;28;20258;-83
2021/06/11 04:45:32;;;;;;;0.53;0.50;;;21.60;99.90;;;;;;5061701;28;20217;-84
2021/06/11 04:47:59;;;;;;;0.50;0.50;;;21.60;99.90;;;;;;5069704;28;20295;-84
2021/06/11 04:50:26;;;;;;;0.73;0.73;;;21.50;99.90;;;;;;5059221;28;20242;-85
2021/06/11 04:52:53;;;;;;;0.47;0.47;;;21.50;99.90;;;;;;5056137;28;20250;-83
2021/06/11 04:55:19;;;;;;;2.47;0.80;;;21.20;99.90;;;;;;5056108;28;20276;-85
2021/06/11 04:57:45;;;;;;;0.70;0.70;;;21.10;99.90;;;;;;5048882;28;20343;-82
2021/06/11 05:00:11;;;;;;;0.97;0.97;;;21.00;99.90;;;;;;5059676;28;20269;-82
2021/06/11 05:02:37;;;;;;;3.30;1.27;;;20.70;99.90;;;;;;5072929;28;20665;-82
2021/06/11 05:05:03;;;;;;;0.80;0.80;;;20.50;99.90;;;;;;5058023;28;20284;-82
2021/06/11 05:07:29;;;;;;;1.17;0.97;;;20.40;99.90;;;;;;5056648;28;20192;-83
2021/06/11 05:09:54;;;;;;;0.60;0.60;;;20.40;99.90;;;;;;5053499;28;20280;-84
2021/06/11 05:12:20;;;;;;;0.73;0.73;;;20.50;99.90;;;;;;5059056;28;20185;-85
2021/06/11 05:14:45;;;;;;;1.73;1.60;;;20.50;99.90;;;;;;5069300;28;20220;-84
2021/06/11 05:17:11;;;;;;;0.67;0.67;;;20.50;99.90;;;;;;5054751;28;20212;-83
2021/06/11 05:19:37;;;;;;;0.67;0.40;;;20.60;99.90;;;;;;5051716;28;20289;-83
2021/06/11 05:22:03;;;;;;;0.80;0.80;;;20.80;99.90;;;;;;5055662;28;20213;-84
2021/06/11 05:24:28;;;;;;;1.30;0.80;;;20.70;99.90;;;;;;5044869;28;20210;-83
2021/06/11 05:26:54;;;;;;;1.13;1.10;;;20.70;99.90;;;;;;5043907;28;20292;-83
2021/06/11 05:29:19;;;;;;;1.10;1.00;;;20.80;99.90;;;;;;5051207;28;20677;-83
2021/06/11 05:31:45;;;;;;;1.90;1.00;;;20.80;99.90;;;;;;5047944;28;20189;-83
2021/06/11 05:34:11;;;;;;;0.70;0.70;;;20.70;99.90;;;;;;5044676;28;20218;-83
2021/06/11 05:36:37;;;;;;;1.00;0.80;;;20.80;99.90;;;;;;5050838;28;20416;-81
2021/06/11 05:39:03;;;;;;;0.43;0.43;;;20.80;99.90;;;;;;5048275;28;20206;-82
2021/06/11 05:41:29;;;;;;;0.93;0.90;;;20.90;99.90;;;;;;5048642;28;20185;-83
2021/06/11 05:43:54;;;;;;;0.60;0.60;;;21.00;99.90;;;;;;5046377;28;20228;-82
2021/06/11 05:46:20;;;;;;;0.97;0.73;;;21.00;99.90;;;;;;5043731;28;20189;-83
2021/06/11 05:48:47;;;;;;;0.77;0.60;;;21.10;99.90;;;;;;5050375;28;20240;-83
2021/06/11 05:51:13;;;;;;;0.40;0.40;;;21.20;99.90;;;;;;5050953;28;20182;-83
2021/06/11 05:53:38;;;;;;;0.70;0.70;;;21.30;99.90;;;;;;5052253;28;20277;-83
2021/06/11 05:56:04;;;;;;;0.80;0.80;;;21.50;99.90;;;;;;5051067;28;20235;-83
2021/06/11 05:58:31;;;;;;;0.40;0.30;;;21.50;99.90;;;;;;5047315;28;20206;-81
2021/06/11 06:00:56;;;;;;;0.80;0.80;;;21.60;99.90;;;;;;5052074;28;20676;-84
2021/06/11 06:03:22;;;;;;;0.77;0.77;;;21.70;99.90;;;;;;5050176;28;20181;-84
2021/06/11 06:05:48;;;;;;;0.43;0.43;;;21.80;99.90;;;;;;5050273;28;20189;-83
2021/06/11 06:08:14;;;;;;;0.50;0.50;;;21.90;99.90;;;;;;5047508;28;20202;-82
2021/06/11 06:10:40;;;;;;;0.73;0.73;;;22.00;99.90;;;;;;5067012;28;20185;-82
2021/06/11 06:13:06;;;;;;;1.20;0.80;;;22.10;99.90;;;;;;5054315;28;20189;-82
2021/06/11 06:15:32;;;;;;;0.87;0.67;;;22.10;99.90;;;;;;5049374;28;20182;-83
2021/06/11 06:17:57;;;;;;;1.77;1.00;;;22.10;99.90;;;;;;5050941;28;20201;-82
2021/06/11 06:20:23;;;;;;;0.73;0.50;;;22.20;99.90;;;;;;5048305;28;20198;-83
2021/06/11 06:22:48;;;;;;;0.87;0.87;;;22.30;99.90;;;;;;5050914;28;20190;-82
2021/06/11 06:25:14;;;;;;;0.93;0.83;;;22.20;99.90;;;;;;5058230;28;20258;-82
2021/06/11 06:27:42;;;;;;;0.93;0.93;;;22.20;99.90;;;;;;5064784;28;20223;-82
2021/06/11 06:30:10;;;;;;;1.00;0.97;;;22.20;99.90;;;;;;5055539;28;20193;-82
2021/06/11 06:32:36;;;;;;;0.63;0.63;;;22.30;99.90;;;;;;5052372;28;20255;-82
2021/06/11 06:35:02;;;;;;;1.17;1.07;;;22.40;99.90;;;;;;5050976;28;20181;-81
2021/06/11 06:37:28;;;;;;;0.83;0.80;;;22.40;99.90;;;;;;5064443;28;20201;-82
2021/06/11 06:39:54;;;;;;;0.50;0.50;;;22.50;99.90;;;;;;5049762;28;20177;-82
2021/06/11 06:42:20;;;;;;;0.70;0.60;;;22.40;99.90;;;;;;5041670;28;20182;-82
2021/06/11 06:44:46;;;;;;;1.13;1.13;;;22.40;99.90;;;;;;5045097;28;20556;-81
2021/06/11 06:47:11;;;;;;;0.93;0.90;;;22.50;99.90;;;;;;5048478;28;20698;-83
2021/06/11 06:49:38;;;;;;;0.57;0.57;;;22.60;99.90;;;;;;5049552;28;20235;-82
2021/06/11 06:52:04;;;;;;;0.70;0.70;;;22.70;99.90;;;;;;5055007;28;20549;-83
2021/06/11 06:54:30;;;;;;;0.73;0.73;;;22.70;99.90;;;;;;5048165;28;20186;-83
2021/06/11 06:56:55;;;;;;;0.70;0.70;;;22.70;99.90;;;;;;5049503;28;20186;-84
2021/06/11 06:59:21;;;;;;;0.67;0.67;;;22.80;99.90;;;;;;5055001;28;20172;-82
2021/06/11 07:01:56;;;;;;;0.93;0.73;;;23.00;99.90;;;;;;5072582;28;20189;-83
2021/06/11 07:04:23;;;;;;;0.80;0.73;;;23.00;99.90;;;;;;5056776;28;20221;-82
2021/06/11 07:06:49;;;;;;;0.83;0.83;;;23.00;99.90;;;;;;5049998;28;20181;-83
2021/06/11 07:09:16;;;;;;;0.50;0.50;;;23.10;99.90;;;;;;5056756;28;20259;-84
2021/06/11 07:11:42;;;;;;;1.13;0.70;;;23.30;99.90;;;;;;5066893;28;20188;-82
2021/06/11 07:14:08;;;;;;;1.13;0.67;;;23.50;99.90;;;;;;5051910;28;20182;-83
2021/06/11 07:16:33;;;;;;;0.50;0.50;;;23.70;99.90;;;;;;5050146;28;20555;-84
2021/06/11 07:18:59;;;;;;;0.57;0.47;;;23.70;99.90;;;;;;5051616;28;20263;-83
2021/06/11 07:21:24;;;;;;;0.40;0.40;;;23.90;99.90;;;;;;5052287;28;20235;-83
2021/06/11 07:23:50;;;;;;;0.50;0.50;;;24.10;99.90;;;;;;5052749;28;20182;-84
2021/06/11 07:26:16;;;;;;;0.40;0.40;;;24.30;99.90;;;;;;5049805;28;20588;-84
2021/06/11 07:28:41;;;;;;;0.40;0.40;;;24.50;99.90;;;;;;5049422;28;20198;-83
2021/06/11 07:31:07;;;;;;;0.67;0.67;;;24.60;99.90;;;;;;5042068;28;20198;-83
2021/06/11 07:33:34;;;;;;;2.63;1.50;;;24.60;99.90;;;;;;5051858;28;20770;-83
2021/06/11 07:36:02;;;;;;;0.77;0.77;;;24.80;99.90;;;;;;5044657;28;20212;-84
2021/06/11 07:38:27;;;;;;;1.07;0.97;;;25.00;99.90;;;;;;5051864;28;20208;-83
2021/06/11 07:40:53;;;;;;;2.20;0.67;;;24.80;99.90;;;;;;5050100;28;20276;-83
2021/06/11 07:43:20;;;;;;;0.60;0.60;;;24.70;99.90;;;;;;5049845;28;20254;-84
2021/06/11 07:45:47;;;;;;;0.97;0.93;;;25.00;99.90;;;;;;5041090;28;20592;-84
2021/06/11 07:48:13;;;;;;;1.13;1.03;;;25.30;99.90;;;;;;5050725;28;20219;-82
2021/06/11 07:50:39;;;;;;;0.70;0.57;;;25.50;99.90;;;;;;5058774;28;20269;-84
2021/06/11 07:53:04;;;;;;;0.80;0.80;;;25.70;99.90;;;;;;5050781;28;20185;-84
2021/06/11 07:55:31;;;;;;;0.60;0.60;;;25.80;99.90;;;;;;5056533;28;20326;-84
2021/06/11 07:57:56;;;;;;;0.60;0.60;;;25.90;99.90;;;;;;5050305;28;20701;-84
2021/06/11 08:00:22;;;;;;;0.50;0.50;;;25.90;99.90;;;;;;5050412;28;20190;-83
2021/06/11 08:02:48;;;;;;;1.90;1.40;;;26.10;99.90;;;;;;5051206;28;20193;-82
2021/06/11 08:05:13;;;;;;;0.70;0.40;;;26.30;99.90;;;;;;5050484;28;20213;-84
2021/06/11 08:07:39;;;;;;;1.00;0.70;;;26.40;99.90;;;;;;5047494;28;20209;-84
2021/06/11 08:10:06;;;;;;;1.17;1.07;;;26.40;99.90;;;;;;5077677;28;20181;-84
2021/06/11 08:12:31;;;;;;;0.80;0.67;;;26.50;99.90;;;;;;5043571;28;20714;-84
2021/06/11 08:14:58;;;;;;;8.10;0.90;;;26.40;99.90;;;;;;5050600;28;20272;-84
2021/06/11 08:17:24;;;;;;;0.63;0.63;;;26.30;99.90;;;;;;5036623;28;20578;-84
2021/06/11 08:19:49;;;;;;;1.13;1.03;;;26.40;99.90;;;;;;5040666;28;20280;-84
2021/06/11 08:22:15;;;;;;;0.47;0.47;;;26.20;99.90;;;;;;5050103;28;20595;-84
2021/06/11 08:24:40;;;;;;;2.57;0.97;;;26.40;99.90;;;;;;5050423;28;20249;-83
2021/06/11 08:27:06;;;;;;;1.00;1.00;;;26.50;99.90;;;;;;5050909;28;20214;-84
2021/06/11 08:29:32;;;;;;;1.10;1.00;;;26.20;99.90;;;;;;5049032;28;20277;-84
2021/06/11 08:31:58;;;;;;;3.70;1.00;;;26.60;99.90;;;;;;5049849;28;20181;-84
2021/06/11 08:34:24;;;;;;;1.10;0.97;;;26.80;99.90;;;;;;5049248;28;20733;-84
2021/06/11 08:36:49;;;;;;;1.10;1.10;;;27.10;99.90;;;;;;5049612;28;20281;-83
2021/06/11 08:39:15;;;;;;;0.67;0.67;;;27.00;99.90;;;;;;5053025;28;20189;-83
2021/06/11 08:41:40;;;;;;;0.77;0.77;;;27.30;99.90;;;;;;5065332;28;20182;-82
2021/06/11 08:44:07;;;;;;;0.50;0.50;;;27.40;99.90;;;;;;5053058;28;20292;-84
2021/06/11 08:46:34;;;;;;;0.93;0.93;;;27.50;99.90;;;;;;5053308;28;20192;-84
2021/06/11 08:49:01;;;;;;;0.90;0.90;;;27.60;99.90;;;;;;5068366;28;20206;-86
2021/06/11 08:51:28;;;;;;;2.57;1.20;;;27.60;99.90;;;;;;5045204;28;20183;-82
2021/06/11 08:53:54;;;;;;;0.80;0.70;;;27.80;99.90;;;;;;5052970;28;20228;-83
2021/06/11 08:56:20;;;;;;;0.87;0.80;;;27.90;99.90;;;;;;5051700;28;20729;-84
2021/06/11 08:58:46;;;;;;;1.00;0.80;;;27.50;99.90;;;;;;5048870;28;20201;-83
2021/06/11 09:01:11;;;;;;;0.90;0.90;;;27.60;99.90;;;;;;5052779;28;20182;-83
2021/06/11 09:03:45;;;;;;;1.07;0.70;;;27.40;99.90;;;;;;5052365;28;20193;-83
2021/06/11 09:06:16;;;;;;;2.13;1.10;;;27.10;99.90;;;;;;5066335;28;20189;-83
2021/06/11 09:09:09;;;;;;;2.37;1.60;;;27.40;99.90;;;;;;5044998;28;20197;-82
2021/06/11 09:11:36;;;;;;;0.77;0.77;;;27.80;99.90;;;;;;5048272;28;20201;-83
2021/06/11 09:14:16;;;;;;;3.03;1.02;;;28.00;99.90;;;;;;5048705;28;20177;-83
2021/06/11 09:16:47;;;;;;;0.70;0.70;;;28.30;99.90;;;;;;5070483;28;20250;-83
2021/06/11 09:19:21;;;;;;;0.57;0.57;;;28.40;99.90;;;;;;5054013;28;20206;-83
2021/06/11 09:21:48;;;;;;;0.60;0.60;;;28.60;99.90;;;;;;5069702;28;20241;-83
2021/06/11 09:24:28;;;;;;;0.93;0.93;;;28.80;99.90;;;;;;5048766;28;20292;-83
2021/06/11 09:27:01;;;;;;;1.17;1.08;;;28.80;99.90;;;;;;5041829;28;20174;-83
2021/06/11 09:29:29;;;;;;;0.73;0.68;;;28.80;99.90;;;;;;5050230;28;20636;-83
2021/06/11 09:32:13;;;;;;;0.95;0.73;;;29.00;99.90;;;;;;5053171;28;20178;-83
2021/06/11 09:34:39;;;;;;;0.60;0.60;;;28.80;99.90;;;;;;5048983;28;20196;-83
2021/06/11 09:37:07;;;;;;;0.85;0.85;;;29.00;99.90;;;;;;5054820;28;20606;-83
2021/06/11 09:40:01;;;;;;;0.73;0.63;;;29.10;99.90;;;;;;5075563;28;20186;-83
2021/06/11 09:42:33;;;;;;;0.90;0.90;;;29.00;99.90;;;;;;5054108;28;20256;-82
2021/06/11 09:45:16;;;;;;;1.40;1.30;;;28.90;99.90;;;;;;5050782;28;20209;-83
2021/06/11 09:47:44;;;;;;;1.02;1.00;;;28.90;99.90;;;;;;5053206;28;20567;-83
2021/06/11 09:50:20;;;;;;;1.05;0.73;;;28.90;99.90;;;;;;5050282;28;20190;-83
2021/06/11 09:53:02;;;;;;;1.75;1.08;;;29.10;99.90;;;;;;5052026;28;20197;-82
2021/06/11 09:55:40;;;;;;;1.02;0.47;;;29.20;99.90;;;;;;5051897;28;20212;-83
2021/06/11 09:58:22;;;;;;;0.52;0.52;;;29.50;99.90;;;;;;5052954;28;20704;-83
2021/06/11 10:01:02;;;;;;;0.73;0.73;;;29.60;99.90;;;;;;5069314;28;20272;-83
2021/06/11 10:03:34;;;;;;;0.50;0.50;;;29.50;99.90;;;;;;5052450;28;20193;-83
2021/06/11 10:06:07;;;;;;;1.13;0.65;;;29.60;99.90;;;;;;5053426;28;20205;-83
2021/06/11 10:08:34;;;;;;;0.68;0.68;;;29.70;99.90;;;;;;5066470;28;20208;-82
2021/06/11 10:11:02;;;;;;;1.40;1.00;;;29.90;99.90;;;;;;5056681;28;20189;-83
2021/06/11 10:13:28;;;;;;;1.48;1.17;;;30.10;99.90;;;;;;5053076;28;20657;-83
2021/06/11 10:15:56;;;;;;;0.90;0.70;;;30.00;99.90;;;;;;5051806;28;20190;-83
2021/06/11 10:18:23;;;;;;;0.75;0.75;;;30.00;99.90;;;;;;5057441;28;20227;-83
2021/06/11 10:20:49;;;;;;;1.48;0.70;;;30.10;99.90;;;;;;5048936;28;20559;-82
2021/06/11 10:23:19;;;;;;;0.70;0.70;;;30.10;99.90;;;;;;5047444;28;20603;-83
2021/06/11 10:26:02;;;;;;;0.90;0.90;;;30.10;99.90;;;;;;5014323;28;20233;-83
2021/06/11 10:28:31;;;;;;;0.70;0.70;;;30.30;99.90;;;;;;5048515;28;20296;-83
2021/06/11 10:31:01;;;;;;;1.25;0.85;;;30.20;99.90;;;;;;5050865;28;20190;-83
2021/06/11 10:33:50;;;;;;;0.47;0.47;;;30.30;99.90;;;;;;5050453;28;20216;-83
2021/06/11 10:36:45;;;;;;;2.80;1.90;;;30.50;99.90;;;;;;5050272;28;20784;-83
2021/06/11 10:39:12;;;;;;;0.80;0.80;;;30.50;99.90;;;;;;5046373;28;20204;-83
2021/06/11 10:42:13;;;;;;;0.85;0.85;;;30.60;99.90;;;;;;5041367;28;20177;-83
2021/06/11 10:44:43;;;;;;;1.60;1.20;;;30.70;99.90;;;;;;5025377;28;20347;-83
2021/06/11 10:47:17;;;;;;;0.77;0.77;;;30.60;99.90;;;;;;5048198;28;20202;-83
2021/06/11 10:49:55;;;;;;;0.80;0.80;;;30.70;99.90;;;;;;5047577;28;20725;-83
2021/06/11 10:52:49;;;;;;;0.55;0.55;;;31.00;99.90;;;;;;5044870;28;20654;-82
2021/06/11 10:55:21;;;;;;;0.85;0.85;;;31.30;99.90;;;;;;5047138;28;20232;-84
2021/06/11 10:57:53;;;;;;;1.45;1.27;;;31.60;99.90;;;;;;5047356;28;20219;-83
2021/06/11 11:00:27;;;;;;;0.98;0.93;;;31.50;99.90;;;;;;5047652;28;20182;-83
2021/06/11 11:02:59;;;;;;;1.10;0.90;;;31.70;99.90;;;;;;5049677;28;20196;-84
2021/06/11 11:05:30;;;;;;;0.80;0.80;;;31.60;99.90;;;;;;5045637;28;20282;-82
2021/06/11 11:07:56;;;;;;;0.60;0.60;;;31.60;99.90;;;;;;5046631;28;20787;-83
2021/06/11 11:10:35;;;;;;;0.65;0.57;;;31.80;99.90;;;;;;5043079;28;20264;-83
2021/06/11 11:13:07;;;;;;;0.60;0.60;;;32.10;99.90;;;;;;5045746;28;20264;-83
2021/06/11 11:15:41;;;;;;;0.80;0.80;;;32.20;99.90;;;;;;5047408;28;20218;-82
2021/06/11 11:18:11;;;;;;;0.70;0.70;;;32.00;99.90;;;;;;5044761;28;20700;-83
2021/06/11 11:20:40;;;;;;;0.45;0.45;;;31.60;99.90;;;;;;5047020;28;20276;-82
2021/06/11 11:23:16;;;;;;;1.80;0.65;;;31.20;99.90;;;;;;5039870;28;20184;-81
2021/06/11 11:25:43;;;;;;;0.50;0.50;;;31.10;99.90;;;;;;5040061;28;20216;-83
2021/06/11 11:28:10;;;;;;;1.38;0.80;;;31.10;99.90;;;;;;5037989;28;20621;-83
2021/06/11 11:30:40;;;;;;;0.45;0.45;;;31.20;99.90;;;;;;5038965;28;20194;-83
2021/06/11 11:33:08;;;;;;;0.50;0.50;;;31.40;99.90;;;;;;5049852;28;20541;-81
2021/06/11 11:35:37;;;;;;;1.67;1.40;;;31.40;99.90;;;;;;5047131;28;20178;-83
2021/06/11 11:38:05;;;;;;;0.45;0.45;;;31.30;99.90;;;;;;5042339;28;20212;-83
2021/06/11 11:40:31;;;;;;;0.82;0.60;;;31.60;99.90;;;;;;5044092;28;20182;-83
2021/06/11 11:43:02;;;;;;;0.73;0.73;;;31.50;99.90;;;;;;5047186;28;20177;-82
2021/06/11 11:45:29;;;;;;;0.50;0.50;;;30.90;99.90;;;;;;5046684;28;20237;-83
2021/06/11 11:47:57;;;;;;;0.60;0.60;;;31.30;99.90;;;;;;5049227;28;20205;-83
2021/06/11 11:50:24;;;;;;;0.90;0.70;;;31.50;99.90;;;;;;5048987;28;20260;-83
2021/06/11 11:52:49;;;;;;;0.30;0.30;;;31.20;99.90;;;;;;5054986;28;20185;-82
2021/06/11 11:55:15;;;;;;;0.47;0.47;;;31.00;99.90;;;;;;5051555;28;20192;-83
2021/06/11 11:57:42;;;;;;;0.47;0.47;;;31.00;99.90;;;;;;5049953;28;20210;-83
2021/06/11 12:00:09;;;;;;;0.60;0.60;;;31.20;99.90;;;;;;5050808;28;20227;-82
2021/06/11 12:02:34;;;;;;;0.50;0.50;;;31.30;99.90;;;;;;5043285;28;20240;-83
2021/06/11 12:05:00;;;;;;;0.70;0.63;;;31.50;99.90;;;;;;5050213;28;20657;-83
2021/06/11 12:07:26;;;;;;;0.77;0.77;;;31.50;99.90;;;;;;5050798;28;20581;-83
2021/06/11 12:09:56;;;;;;;0.90;0.70;;;31.60;99.90;;;;;;5051146;28;20283;-83
2021/06/11 12:12:21;;;;;;;0.38;0.38;;;31.80;99.90;;;;;;5048845;28;20557;-83
2021/06/11 12:14:47;;;;;;;0.73;0.73;;;31.50;99.90;;;;;;5053945;28;20210;-83
2021/06/11 12:17:13;;;;;;;0.77;0.55;;;31.10;99.90;;;;;;5054552;28;20579;-83
2021/06/11 12:19:38;;;;;;;0.63;0.63;;;31.30;99.90;;;;;;5044378;28;20552;-83
2021/06/11 12:22:05;;;;;;;1.02;0.75;;;31.50;99.90;;;;;;5052892;28;20556;-84
2021/06/11 12:24:31;;;;;;;0.98;0.90;;;31.50;99.90;;;;;;5054010;28;20201;-81
2021/06/11 12:26:57;;;;;;;0.45;0.45;;;31.40;99.90;;;;;;5057775;28;20178;-83
2021/06/11 12:29:23;;;;;;;1.15;1.05;;;31.20;99.90;;;;;;5054075;28;20193;-83
2021/06/11 12:31:50;;;;;;;0.93;0.93;;;30.90;99.90;;;;;;5052970;28;20532;-84
2021/06/11 12:34:16;;;;;;;0.73;0.43;;;30.40;99.90;;;;;;5056853;28;20186;-83
2021/06/11 12:36:43;;;;;;;0.60;0.60;;;30.50;99.90;;;;;;5069291;28;20273;-83
2021/06/11 12:39:09;;;;;;;0.63;0.63;;;30.50;99.90;;;;;;5052167;28;20202;-84
2021/06/11 12:41:36;;;;;;;0.75;0.75;;;29.80;99.90;;;;;;5054903;28;20185;-84
2021/06/11 12:44:15;;;;;;;1.50;0.77;;;29.40;99.90;;;;;;5053140;28;20265;-84
2021/06/11 12:46:50;;;;;;;0.77;0.70;;;29.30;99.90;;;;;;5054845;28;20259;-83
2021/06/11 12:49:16;;;;;;;0.93;0.93;;;29.20;99.90;;;;;;5060841;28;20665;-84
2021/06/11 12:51:42;;;;;;;2.08;0.82;;;29.60;99.90;;;;;;5068408;28;20189;-83
2021/06/11 12:54:08;;;;;;;0.30;0.30;;;29.90;99.90;;;;;;5053664;28;20189;-83